BENNETT weather

Bennetts Field
Worden, Arkansas, United States

Public forecast

Using degrees Fahrenheit for public forecast. Weather courtesy of forecast.io.

Closest aviation weather report (METAR) to Bennetts Field

Closest report is Searcy Municipal Airport, 13.0 nm (24.1 km) WSW. Retrieved 2020/01/29 13:56 UTC (26 minutes ago):

KSRC 291356Z AUTO 01008KT 6SM -RA BR OVC006 04/04 A3004 RMK AO2 SLP177 P0000 T00390039

Closest aviation forecast (TAF) to Bennetts Field

Closest forecast is Little Rock Air Force Base, 39.2 nm (72.5 km) WSW. Retrieved 2020/01/29 15:18 UTC (0 seconds ago):

TAF KLRF 291511Z 2915/3021 04009KT 9000 BR BKN007 OVC020 QNH3000INS BECMG 2919/2920 03009KT 9999 NSW OVC010 QNH3002INS BECMG 2921/2922 01009KT 9999 BKN015 OVC030 QNH3003INS BECMG 3009/3010 01009KT 9999 OVC010 QNH3014INS BECMG 3017/3018 05006KT 9999 SCT020 QNH3016INS TX07/2921Z TN01/3011Z